| Date | Time | Temp. (oF) | Dew Point (oF) | Rel. Hum. (%) | Press. (in.) | Wind Dir. | Wind Speed (mph) | Hourly Rainfall (in.) |
|
|---|---|---|---|---|---|---|---|---|---|
| 1 | 02/05 | 00:00 | 19 | 8 | 63 | 30.20 | NW | 9 | 0.00 |
| 2 | 02/04 | 23:00 | 20 | 9 | 62 | 30.16 | NW | 18 | 0.00 |
| 3 | 02/04 | 22:00 | 22 | 10 | 61 | 30.12 | NW | 12 | 0.00 |
| 4 | 02/04 | 21:00 | 24 | 11 | 59 | 30.08 | NW | 14 | 0.00 |
| 5 | 02/04 | 20:00 | 27 | 16 | 63 | 30.03 | WNW | 11 | 0.00 |
| 6 | 02/04 | 19:00 | 27 | 16 | 64 | 29.97 | WNW | 16 | 0.00 |
| 7 | 02/04 | 18:00 | 26 | 19 | 77 | 29.92 | WNW | 16 | 0.00 |
| 8 | 02/04 | 17:00 | 29 | 19 | 67 | 29.86 | NW | 10 | 0.00 |
| 9 | 02/04 | 16:00 | 32 | 19 | 59 | 29.81 | NW | 15 | 0.00 |
| 10 | 02/04 | 15:00 | 33 | 22 | 64 | 29.79 | WNW | 10 | 0.00 |
| 11 | 02/04 | 14:00 | 31 | 30 | 97 | 29.78 | W | 9 | 0.00 |
| 12 | 02/04 | 13:00 | 28 | 27 | 100 | 29.78 | NW | 8 | 0.00 |
| 13 | 02/04 | 12:00 | 33 | 31 | 94 | 29.77 | WNW | 1 | 0.00 |
| 14 | 02/04 | 11:00 | 36 | 30 | 80 | 29.78 | SW | 10 | 0.00 |
| 15 | 02/04 | 10:00 | 37 | 28 | 70 | 29.78 | SW | 2 | 0.00 |
| 16 | 02/04 | 09:00 | 28 | 27 | 100 | 29.80 | S | 1 | 0.00 |
| 17 | 02/04 | 08:00 | 23 | 22 | 98 | 29.82 | SSW | 2 | 0.00 |
| 18 | 02/04 | 07:00 | 23 | 22 | 98 | 29.83 | WSW | 1 | 0.00 |
| 19 | 02/04 | 06:00 | 24 | 23 | 97 | 29.82 | SW | 0 | 0.00 |
| 20 | 02/04 | 05:00 | 24 | 23 | 97 | 29.83 | W | 0 | 0.00 |
| 21 | 02/04 | 04:00 | 24 | 23 | 97 | 29.84 | W | 0 | 0.00 |
| 22 | 02/04 | 03:00 | 23 | 21 | 94 | 29.85 | W | 0 | 0.00 |
| 23 | 02/04 | 02:00 | 24 | 22 | 92 | 29.87 | WNW | 1 | 0.00 |
| 24 | 02/04 | 01:00 | 25 | 22 | 90 | 29.89 | W | 0 | 0.00 |